Time;durP1;ratioP1;P1;durP2;ratioP2;P2;SDS_P1;SDS_P2;PMS_P1;PMS_P2;Temp;Humidity;BMP_temperature;BMP_pressure;BME280_temperature;BME280_humidity;BME280_pressure;Samples;Min_cycle;Max_cycle;Signal;HPM_P1;HPM_P2
2020/12/05 00:02:18;;;;;;;16.70;8.60;;;5.20;99.90;;;;;;5105194;27;20233;-69
2020/12/05 00:04:45;;;;;;;16.17;9.83;;;5.30;99.90;;;;;;5126536;27;20459;-69
2020/12/05 00:07:11;;;;;;;16.07;9.40;;;5.30;99.90;;;;;;5094089;27;20497;-69
2020/12/05 00:09:37;;;;;;;15.90;8.40;;;5.30;99.90;;;;;;5095572;27;20455;-69
2020/12/05 00:12:07;;;;;;;18.60;9.60;;;5.30;99.90;;;;;;5095200;27;20522;-69
2020/12/05 00:14:33;;;;;;;20.20;10.37;;;5.30;99.90;;;;;;5092109;28;20571;-69
2020/12/05 00:16:59;;;;;;;17.00;9.90;;;5.30;99.90;;;;;;5103352;27;20538;-72
2020/12/05 00:19:25;;;;;;;15.13;8.40;;;5.30;99.90;;;;;;5071857;28;20271;-69
2020/12/05 00:21:55;;;;;;;18.10;9.13;;;5.30;99.90;;;;;;5093352;27;20213;-69
2020/12/05 00:24:21;;;;;;;16.90;10.13;;;5.30;99.90;;;;;;5086393;27;20265;-70
2020/12/05 00:26:49;;;;;;;21.97;10.00;;;5.30;99.90;;;;;;5095178;27;21017;-69
2020/12/05 00:29:14;;;;;;;17.10;9.97;;;5.30;99.90;;;;;;5087975;28;20489;-69
2020/12/05 00:31:40;;;;;;;15.00;9.40;;;5.30;99.90;;;;;;5093228;27;20486;-69
2020/12/05 00:34:06;;;;;;;20.40;10.20;;;5.30;99.90;;;;;;5084858;28;20670;-69
2020/12/05 00:36:31;;;;;;;16.03;8.90;;;5.30;99.90;;;;;;5070377;28;20309;-70
2020/12/05 00:38:57;;;;;;;17.67;8.83;;;5.30;99.90;;;;;;5075205;27;20730;-69
2020/12/05 00:41:23;;;;;;;17.37;9.43;;;5.30;99.90;;;;;;5091387;28;20234;-69
2020/12/05 00:43:48;;;;;;;15.43;9.00;;;5.30;99.90;;;;;;5077549;27;20225;-70
2020/12/05 00:46:14;;;;;;;17.03;9.37;;;5.30;99.90;;;;;;5094917;27;20222;-69
2020/12/05 00:48:40;;;;;;;18.47;8.13;;;5.30;99.90;;;;;;5087870;27;20271;-69
2020/12/05 00:51:11;;;;;;;20.13;10.37;;;5.30;99.90;;;;;;5096049;27;20447;-69
2020/12/05 00:53:38;;;;;;;25.80;13.57;;;5.30;99.90;;;;;;5078680;27;20718;-69
2020/12/05 00:56:04;;;;;;;19.17;10.43;;;5.30;99.90;;;;;;5092208;28;20467;-69
2020/12/05 00:58:34;;;;;;;20.07;11.60;;;5.30;99.90;;;;;;5095036;27;20972;-69
2020/12/05 01:01:04;;;;;;;20.23;10.83;;;5.30;99.90;;;;;;5085194;28;20680;-70
2020/12/05 01:03:30;;;;;;;20.27;10.40;;;5.30;99.90;;;;;;5104314;27;20479;-70
2020/12/05 01:05:57;;;;;;;17.83;9.77;;;5.30;99.90;;;;;;5106121;28;20471;-69
2020/12/05 01:08:24;;;;;;;20.00;9.40;;;5.30;99.90;;;;;;5094304;28;20567;-70
2020/12/05 01:10:50;;;;;;;14.63;9.20;;;5.30;99.90;;;;;;5093876;28;20448;-69
2020/12/05 01:13:15;;;;;;;20.10;9.40;;;5.30;99.90;;;;;;5111378;28;20455;-69
2020/12/05 01:15:41;;;;;;;16.93;9.03;;;5.30;99.90;;;;;;5097243;27;20450;-70
2020/12/05 01:18:07;;;;;;;16.10;9.40;;;5.30;99.90;;;;;;5101075;27;20231;-69
2020/12/05 01:20:33;;;;;;;16.43;9.30;;;5.30;99.90;;;;;;5099654;27;20451;-69
2020/12/05 01:22:59;;;;;;;15.63;9.10;;;5.30;99.90;;;;;;5114458;27;20217;-69
2020/12/05 01:25:25;;;;;;;18.90;8.87;;;5.30;99.90;;;;;;5072473;27;20490;-69
2020/12/05 01:27:50;;;;;;;17.43;9.13;;;5.30;99.90;;;;;;5097678;27;20260;-69
2020/12/05 01:30:16;;;;;;;20.03;10.70;;;5.30;99.90;;;;;;5097476;27;20233;-69
2020/12/05 01:32:42;;;;;;;18.27;9.00;;;5.30;99.90;;;;;;5097431;27;20214;-69
2020/12/05 01:35:07;;;;;;;20.90;8.67;;;5.30;99.90;;;;;;5107296;27;20241;-69
2020/12/05 01:37:33;;;;;;;17.03;9.67;;;5.30;99.90;;;;;;5081898;27;20559;-69
2020/12/05 01:39:59;;;;;;;16.43;9.37;;;5.30;99.90;;;;;;5081071;27;20213;-70
2020/12/05 01:42:24;;;;;;;15.77;10.47;;;5.30;99.90;;;;;;5082037;28;20253;-69
2020/12/05 01:44:50;;;;;;;20.30;9.47;;;5.30;99.90;;;;;;5094508;28;20233;-70
2020/12/05 01:47:16;;;;;;;20.33;10.20;;;5.20;99.90;;;;;;5114065;27;20222;-69
2020/12/05 01:49:43;;;;;;;18.67;8.20;;;5.30;99.90;;;;;;5111466;27;20209;-69
2020/12/05 01:52:18;;;;;;;17.03;9.07;;;5.30;99.90;;;;;;5113856;27;20279;-69
2020/12/05 01:54:43;;;;;;;14.60;8.73;;;5.30;99.90;;;;;;5097782;27;20483;-70
2020/12/05 01:57:09;;;;;;;14.90;7.73;;;5.30;99.90;;;;;;5098110;27;20790;-70
2020/12/05 01:59:35;;;;;;;15.20;9.47;;;5.30;99.90;;;;;;5095332;27;20260;-71
2020/12/05 02:02:02;;;;;;;15.27;8.53;;;5.30;99.90;;;;;;5087372;27;20234;-69
2020/12/05 02:04:29;;;;;;;15.00;8.63;;;5.30;99.90;;;;;;5109020;27;20292;-69
2020/12/05 02:07:23;;;;;;;18.80;10.20;;;5.30;99.90;;;;;;5109414;27;20458;-69
2020/12/05 02:09:52;;;;;;;13.57;8.60;;;5.30;99.90;;;;;;5094351;28;20454;-70
2020/12/05 02:12:44;;;;;;;19.00;9.03;;;5.30;99.90;;;;;;5093157;27;20544;-71
2020/12/05 02:15:16;;;;;;;17.13;8.50;;;5.30;99.90;;;;;;5103926;28;20961;-71
2020/12/05 02:18:06;;;;;;;23.80;10.67;;;5.30;99.90;;;;;;5108775;28;20457;-69
2020/12/05 02:20:38;;;;;;;13.90;8.83;;;5.30;99.90;;;;;;5124882;27;20857;-71
2020/12/05 02:23:20;;;;;;;16.37;8.70;;;5.30;99.90;;;;;;5089143;28;20479;-69
2020/12/05 02:25:50;;;;;;;15.93;8.53;;;5.20;99.90;;;;;;5111574;28;20467;-69
2020/12/05 02:28:21;;;;;;;15.77;9.10;;;5.30;99.90;;;;;;5100324;27;20504;-70
2020/12/05 02:30:50;;;;;;;13.67;8.30;;;5.20;99.90;;;;;;5113485;27;20451;-70
2020/12/05 02:33:16;;;;;;;16.30;9.17;;;5.20;99.90;;;;;;5117304;27;20502;-69
2020/12/05 02:35:42;;;;;;;15.03;9.13;;;5.20;99.90;;;;;;5095672;27;20447;-69
2020/12/05 02:38:25;;;;;;;16.20;8.00;;;5.20;99.90;;;;;;5081024;27;20450;-70
2020/12/05 02:40:51;;;;;;;14.97;9.00;;;5.20;99.90;;;;;;5082365;28;20214;-70
2020/12/05 02:43:17;;;;;;;15.37;8.80;;;5.20;99.90;;;;;;5125017;27;20504;-69
2020/12/05 02:45:43;;;;;;;18.57;8.07;;;5.20;99.90;;;;;;5113739;27;20440;-69
2020/12/05 02:48:09;;;;;;;20.40;9.33;;;5.10;99.90;;;;;;5096433;27;20520;-71
2020/12/05 02:50:36;;;;;;;16.97;8.60;;;5.20;99.90;;;;;;5095958;27;20697;-70
2020/12/05 02:53:03;;;;;;;16.43;9.43;;;5.10;99.90;;;;;;5084523;28;20450;-69
2020/12/05 02:55:28;;;;;;;15.80;8.03;;;5.20;99.90;;;;;;5079121;27;20444;-70
2020/12/05 02:57:54;;;;;;;17.80;9.27;;;5.20;99.90;;;;;;5095976;27;20487;-70
2020/12/05 03:00:21;;;;;;;12.83;8.00;;;5.20;99.90;;;;;;5126916;27;20218;-69
2020/12/05 03:02:47;;;;;;;16.60;9.30;;;5.20;99.90;;;;;;5110863;27;20471;-69
2020/12/05 03:05:13;;;;;;;16.60;8.03;;;5.20;99.90;;;;;;5115446;27;20444;-69
2020/12/05 03:07:39;;;;;;;17.00;9.73;;;5.20;99.90;;;;;;5096372;27;20467;-69
2020/12/05 03:10:05;;;;;;;15.70;8.53;;;5.20;99.90;;;;;;5096821;27;20224;-69
2020/12/05 03:12:30;;;;;;;16.63;9.60;;;5.20;99.90;;;;;;5095911;27;20312;-70
2020/12/05 03:14:56;;;;;;;15.00;9.27;;;5.20;99.90;;;;;;5079149;27;20221;-69
2020/12/05 03:17:21;;;;;;;16.97;8.37;;;5.20;99.90;;;;;;5096633;27;20210;-69
2020/12/05 03:19:47;;;;;;;15.77;8.20;;;5.20;99.90;;;;;;5084594;27;20230;-69
2020/12/05 03:22:13;;;;;;;14.13;8.27;;;5.20;99.90;;;;;;5087773;27;20239;-70
2020/12/05 03:24:38;;;;;;;14.87;9.03;;;5.20;99.90;;;;;;5107754;28;20261;-71
2020/12/05 03:27:04;;;;;;;19.67;9.50;;;5.20;99.90;;;;;;5077572;27;20238;-69
2020/12/05 03:29:30;;;;;;;17.00;8.60;;;5.20;99.90;;;;;;5099235;27;20236;-70
2020/12/05 03:32:00;;;;;;;17.47;10.00;;;5.20;99.90;;;;;;5077836;27;20211;-69
2020/12/05 03:34:26;;;;;;;13.27;9.17;;;5.20;99.90;;;;;;5060961;28;20448;-69
2020/12/05 03:36:51;;;;;;;15.67;8.40;;;5.20;99.90;;;;;;5078260;27;20439;-69
2020/12/05 03:39:17;;;;;;;13.43;8.03;;;5.20;99.90;;;;;;5061885;27;20304;-70
2020/12/05 03:41:43;;;;;;;16.30;8.60;;;5.20;99.90;;;;;;5111831;27;20252;-70
2020/12/05 03:44:09;;;;;;;16.83;9.60;;;5.20;99.90;;;;;;5099740;27;20222;-70
2020/12/05 03:46:35;;;;;;;18.83;10.47;;;5.20;99.90;;;;;;5096386;27;20471;-69
2020/12/05 03:49:01;;;;;;;17.27;8.60;;;5.20;99.90;;;;;;5074836;27;20496;-69
2020/12/05 03:51:28;;;;;;;13.33;8.00;;;5.20;99.90;;;;;;5093398;27;20218;-70
2020/12/05 03:53:53;;;;;;;14.77;8.73;;;5.20;99.90;;;;;;5075772;27;20851;-70
2020/12/05 03:56:19;;;;;;;13.87;8.30;;;5.20;99.90;;;;;;5091204;27;20473;-71
2020/12/05 03:58:45;;;;;;;15.17;8.77;;;5.20;99.90;;;;;;5105447;27;20219;-71
2020/12/05 04:01:11;;;;;;;11.73;7.63;;;5.20;99.90;;;;;;5090401;27;20275;-70
2020/12/05 04:03:37;;;;;;;13.47;8.60;;;5.20;99.90;;;;;;5094184;27;20816;-71
2020/12/05 04:06:03;;;;;;;15.70;9.40;;;5.20;99.90;;;;;;5112834;27;20225;-70
2020/12/05 04:08:29;;;;;;;13.23;8.67;;;5.20;99.90;;;;;;5097657;27;20244;-70
2020/12/05 04:10:55;;;;;;;16.07;9.00;;;5.20;99.90;;;;;;5094797;27;20293;-70
2020/12/05 04:13:22;;;;;;;16.13;9.00;;;5.20;99.90;;;;;;5092885;27;20515;-71
2020/12/05 04:15:48;;;;;;;16.40;8.70;;;5.20;99.90;;;;;;5092655;27;20790;-71
2020/12/05 04:18:15;;;;;;;16.23;8.50;;;5.20;99.90;;;;;;5097108;27;20516;-71
2020/12/05 04:20:42;;;;;;;18.57;9.27;;;5.20;99.90;;;;;;5075501;27;20210;-71
2020/12/05 04:23:08;;;;;;;14.60;8.30;;;5.20;99.90;;;;;;5092180;27;20523;-70
2020/12/05 04:25:47;;;;;;;16.07;9.57;;;5.20;99.90;;;;;;5109813;27;20878;-71
2020/12/05 04:28:40;;;;;;;15.60;9.03;;;5.20;99.90;;;;;;5064058;27;20479;-70
2020/12/05 04:31:31;;;;;;;17.40;8.70;;;5.20;99.90;;;;;;5095135;27;20522;-71
2020/12/05 04:36:45;;;;;;;17.73;8.60;;;5.20;99.90;;;;;;5668858;23;20536;-70
2020/12/05 04:39:10;;;;;;;16.70;8.43;;;5.20;99.90;;;;;;4956361;28;20457;-70
2020/12/05 04:41:36;;;;;;;17.83;9.50;;;5.20;99.90;;;;;;4955786;28;20684;-74
2020/12/05 04:44:02;;;;;;;16.07;9.00;;;5.20;99.90;;;;;;4985609;28;20222;-70
2020/12/05 04:46:29;;;;;;;18.93;9.50;;;5.20;99.90;;;;;;4975342;28;20240;-70
2020/12/05 04:49:00;;;;;;;15.73;8.60;;;5.20;99.90;;;;;;4974999;28;20453;-70
2020/12/05 04:51:33;;;;;;;17.30;10.20;;;5.10;99.90;;;;;;4957403;28;20453;-70
2020/12/05 04:54:01;;;;;;;19.23;9.90;;;5.10;99.90;;;;;;4972336;28;20902;-74
2020/12/05 04:56:38;;;;;;;18.13;9.53;;;5.10;99.90;;;;;;4956567;28;20488;-70
2020/12/05 04:59:07;;;;;;;12.67;8.87;;;5.20;99.90;;;;;;4958624;28;20499;-71
2020/12/05 05:01:38;;;;;;;14.83;9.80;;;5.20;99.90;;;;;;4972409;28;20472;-73
2020/12/05 05:04:05;;;;;;;16.83;9.97;;;5.20;99.90;;;;;;4953654;28;20453;-71
2020/12/05 05:06:31;;;;;;;16.23;9.07;;;5.20;99.90;;;;;;4972730;28;20505;-71
2020/12/05 05:08:58;;;;;;;15.23;9.10;;;5.20;99.90;;;;;;4989830;28;20492;-71
2020/12/05 05:11:53;;;;;;;14.90;9.10;;;5.20;99.90;;;;;;4965238;28;20453;-70
2020/12/05 05:14:18;;;;;;;11.13;7.27;;;5.20;99.90;;;;;;4979090;28;20532;-71
2020/12/05 05:16:44;;;;;;;15.00;9.83;;;5.20;99.90;;;;;;4972567;28;20540;-71
2020/12/05 05:19:22;;;;;;;17.20;9.43;;;5.20;99.90;;;;;;4956988;28;20233;-73
2020/12/05 05:21:48;;;;;;;20.17;8.53;;;5.20;99.90;;;;;;4953365;28;20610;-71
2020/12/05 05:24:17;;;;;;;18.57;9.57;;;5.10;99.90;;;;;;4953459;28;20471;-71
2020/12/05 05:26:43;;;;;;;14.20;8.63;;;5.20;99.90;;;;;;4989646;28;20530;-71
2020/12/05 05:29:43;;;;;;;18.87;9.20;;;5.10;99.90;;;;;;4987945;28;20458;-73
2020/12/05 05:32:16;;;;;;;17.23;9.53;;;5.20;99.90;;;;;;4973110;28;20504;-71
2020/12/05 05:34:42;;;;;;;15.03;8.33;;;5.10;99.90;;;;;;4946778;28;20455;-70
2020/12/05 05:37:15;;;;;;;18.20;9.10;;;5.20;99.90;;;;;;4955934;28;20461;-70
2020/12/05 05:39:48;;;;;;;14.87;8.10;;;5.10;99.90;;;;;;4971673;28;20226;-71
2020/12/05 05:42:36;;;;;;;18.80;9.70;;;5.20;99.90;;;;;;4981829;28;20471;-70
2020/12/05 05:45:25;;;;;;;13.57;8.30;;;5.10;99.90;;;;;;4968514;28;20450;-70
2020/12/05 05:47:59;;;;;;;16.00;8.47;;;5.10;99.90;;;;;;4955173;28;20470;-70
2020/12/05 05:50:29;;;;;;;18.37;9.40;;;5.20;99.90;;;;;;4954069;28;20450;-70
2020/12/05 05:53:00;;;;;;;16.10;9.00;;;5.20;99.90;;;;;;4968604;28;20470;-70
2020/12/05 05:55:37;;;;;;;18.80;9.53;;;5.20;99.90;;;;;;4969547;28;20469;-71
2020/12/05 05:58:04;;;;;;;17.43;9.03;;;5.10;99.90;;;;;;4966233;28;21022;-71
2020/12/05 06:00:37;;;;;;;24.37;9.37;;;5.10;99.90;;;;;;4957884;28;20831;-71
2020/12/05 06:03:16;;;;;;;18.10;9.73;;;5.10;99.90;;;;;;4956674;28;20462;-71
2020/12/05 06:05:47;;;;;;;15.60;9.70;;;5.10;99.90;;;;;;4959242;28;20457;-71
2020/12/05 06:08:21;;;;;;;19.97;10.43;;;5.10;99.90;;;;;;4960243;28;20459;-71
2020/12/05 06:11:20;;;;;;;16.57;9.47;;;5.10;99.90;;;;;;4971917;28;20538;-71
2020/12/05 06:13:47;;;;;;;13.87;7.53;;;5.10;99.90;;;;;;4994787;28;20467;-71
2020/12/05 06:16:13;;;;;;;19.87;10.07;;;5.10;99.90;;;;;;4978845;28;20452;-71
2020/12/05 06:18:40;;;;;;;19.10;9.53;;;5.10;99.90;;;;;;4978816;28;20980;-71
2020/12/05 06:21:05;;;;;;;15.93;9.37;;;5.10;99.90;;;;;;4965030;28;20453;-71
2020/12/05 06:23:31;;;;;;;13.50;8.67;;;5.10;99.90;;;;;;4975473;28;20454;-71
2020/12/05 06:25:59;;;;;;;14.80;8.90;;;5.10;99.90;;;;;;4975259;28;20518;-71
2020/12/05 06:28:25;;;;;;;14.03;8.77;;;5.10;99.90;;;;;;4959290;28;20222;-71
2020/12/05 06:30:54;;;;;;;15.90;9.33;;;5.10;99.90;;;;;;4966136;28;20538;-71
2020/12/05 06:33:43;;;;;;;13.33;8.13;;;5.10;99.90;;;;;;4968947;28;20500;-71
2020/12/05 06:36:39;;;;;;;13.90;8.07;;;5.10;99.90;;;;;;4974381;28;20461;-71
2020/12/05 06:39:10;;;;;;;17.03;9.30;;;5.10;99.90;;;;;;4971744;28;20469;-69
2020/12/05 06:41:39;;;;;;;14.57;8.40;;;5.10;99.90;;;;;;4975476;28;20461;-71
2020/12/05 06:44:18;;;;;;;16.87;8.07;;;5.10;99.90;;;;;;4943353;28;20457;-71
2020/12/05 06:46:52;;;;;;;12.60;8.23;;;5.10;99.90;;;;;;4959158;28;20531;-71
2020/12/05 06:49:39;;;;;;;16.73;7.93;;;5.10;99.90;;;;;;4959569;28;20453;-71
2020/12/05 06:52:28;;;;;;;16.20;10.07;;;5.10;99.90;;;;;;4991539;28;20449;-71
2020/12/05 06:55:04;;;;;;;12.37;9.00;;;5.00;99.90;;;;;;4974876;28;20458;-70
2020/12/05 06:57:31;;;;;;;18.87;11.27;;;5.00;99.90;;;;;;4959625;28;20463;-71
2020/12/05 07:00:25;;;;;;;15.23;9.40;;;4.90;99.90;;;;;;4974105;28;20465;-71
2020/12/05 07:02:55;;;;;;;17.27;10.40;;;4.90;99.90;;;;;;4956400;28;20943;-71
2020/12/05 07:05:21;;;;;;;18.47;9.57;;;4.90;99.90;;;;;;4959924;28;20454;-70
2020/12/05 07:07:54;;;;;;;20.00;10.10;;;5.00;99.90;;;;;;4974067;28;20485;-70
2020/12/05 07:10:41;;;;;;;24.20;12.90;;;5.00;99.90;;;;;;4958787;28;20226;-71
2020/12/05 07:13:22;;;;;;;26.60;13.87;;;5.00;99.90;;;;;;4960752;28;20469;-71
2020/12/05 07:15:49;;;;;;;20.13;10.47;;;5.00;99.90;;;;;;4990976;28;20461;-71
2020/12/05 07:18:24;;;;;;;22.40;11.00;;;5.00;99.90;;;;;;4958880;28;20461;-71
2020/12/05 07:21:15;;;;;;;22.93;10.97;;;5.00;99.90;;;;;;4973834;28;20461;-71
2020/12/05 07:23:41;;;;;;;18.63;10.60;;;5.00;99.90;;;;;;4974114;28;20453;-71
2020/12/05 07:26:07;;;;;;;24.70;13.67;;;5.00;99.90;;;;;;4974778;28;20481;-71
2020/12/05 07:28:34;;;;;;;31.67;16.83;;;5.00;99.90;;;;;;4958520;28;20465;-71
2020/12/05 07:31:01;;;;;;;34.00;17.10;;;5.00;99.90;;;;;;4972332;28;21206;-71
2020/12/05 07:33:27;;;;;;;27.47;14.37;;;5.00;99.90;;;;;;4959196;28;20497;-72
2020/12/05 07:35:58;;;;;;;20.50;12.20;;;5.00;99.90;;;;;;4957339;28;20447;-70
2020/12/05 07:38:27;;;;;;;29.90;15.83;;;5.00;99.90;;;;;;4973777;28;20464;-71
2020/12/05 07:40:52;;;;;;;31.40;18.20;;;5.00;99.90;;;;;;4961017;28;20462;-73
2020/12/05 07:43:20;;;;;;;30.77;17.40;;;5.00;99.90;;;;;;4971026;28;20463;-71
2020/12/05 07:45:48;;;;;;;23.87;15.97;;;5.00;99.90;;;;;;4970073;28;20223;-70
2020/12/05 07:48:17;;;;;;;28.30;16.63;;;5.00;99.90;;;;;;4971101;28;20478;-71
2020/12/05 07:50:44;;;;;;;23.43;14.50;;;5.00;99.90;;;;;;4953504;28;20994;-71
2020/12/05 07:53:43;;;;;;;21.33;12.57;;;4.90;99.90;;;;;;4983295;28;20450;-71
2020/12/05 07:56:23;;;;;;;19.60;11.10;;;4.90;99.90;;;;;;4959889;28;20458;-71
2020/12/05 07:58:53;;;;;;;18.50;10.63;;;4.90;99.90;;;;;;4963902;28;20458;-71
2020/12/05 08:01:58;;;;;;;17.87;11.33;;;4.90;99.90;;;;;;4973201;28;20875;-70
2020/12/05 08:05:00;;;;;;;17.43;9.97;;;4.90;99.90;;;;;;4966936;28;20450;-70
2020/12/05 08:07:38;;;;;;;21.03;11.80;;;5.00;99.90;;;;;;4950745;28;20536;-70
2020/12/05 08:10:09;;;;;;;23.20;12.47;;;5.00;99.90;;;;;;4968007;28;20524;-71
2020/12/05 08:12:44;;;;;;;23.03;12.00;;;4.90;99.90;;;;;;4957049;28;20458;-71
2020/12/05 08:15:12;;;;;;;19.80;10.63;;;4.90;99.90;;;;;;4972603;28;20457;-71
2020/12/05 08:17:41;;;;;;;22.60;12.13;;;4.90;99.90;;;;;;4971724;28;20478;-72
2020/12/05 08:20:10;;;;;;;21.40;14.07;;;5.00;99.90;;;;;;4935005;28;20457;-70
2020/12/05 08:22:37;;;;;;;31.17;14.93;;;5.00;99.90;;;;;;4969823;28;20470;-71
2020/12/05 08:25:05;;;;;;;26.70;14.77;;;5.00;99.90;;;;;;4971480;28;20462;-72
2020/12/05 08:27:31;;;;;;;29.57;14.50;;;5.00;99.90;;;;;;4956721;28;20493;-71
2020/12/05 08:29:58;;;;;;;25.77;15.17;;;5.00;99.90;;;;;;4956257;28;20472;-71
2020/12/05 08:32:25;;;;;;;23.30;13.33;;;5.00;99.90;;;;;;4972801;28;20453;-71
2020/12/05 08:35:05;;;;;;;24.40;12.70;;;5.00;99.90;;;;;;4962782;28;20465;-71
2020/12/05 08:37:32;;;;;;;21.10;11.90;;;5.00;99.90;;;;;;4955592;28;20473;-71
2020/12/05 08:39:58;;;;;;;18.73;11.20;;;5.00;99.90;;;;;;4949686;28;20458;-71
2020/12/05 08:42:25;;;;;;;21.63;12.20;;;5.00;99.90;;;;;;4957462;28;20497;-71
2020/12/05 08:44:51;;;;;;;27.43;13.57;;;5.10;99.90;;;;;;4974454;28;20453;-71
2020/12/05 08:47:17;;;;;;;16.43;11.47;;;5.00;99.90;;;;;;4973270;28;20883;-70
2020/12/05 08:49:50;;;;;;;16.47;10.50;;;5.10;99.90;;;;;;4962683;28;21038;-75
2020/12/05 08:52:17;;;;;;;18.90;11.07;;;5.10;99.90;;;;;;4958143;28;20230;-70
2020/12/05 08:54:50;;;;;;;21.03;10.73;;;5.10;99.90;;;;;;4968074;28;20475;-71
2020/12/05 08:57:17;;;;;;;22.00;11.47;;;5.10;99.90;;;;;;4953861;28;20459;-70
2020/12/05 08:59:43;;;;;;;15.83;8.73;;;5.20;99.90;;;;;;4970744;28;20453;-70
2020/12/05 09:02:10;;;;;;;16.70;9.47;;;5.20;99.90;;;;;;4973601;28;20449;-71
2020/12/05 09:04:37;;;;;;;32.63;17.47;;;5.20;99.90;;;;;;4972451;28;20462;-71
2020/12/05 09:07:14;;;;;;;26.93;14.87;;;5.20;99.90;;;;;;4958708;28;21017;-71
2020/12/05 09:09:41;;;;;;;26.83;14.53;;;5.20;99.90;;;;;;4970796;28;20531;-71
2020/12/05 09:12:12;;;;;;;37.10;18.27;;;5.20;99.90;;;;;;4957487;28;20469;-71
2020/12/05 09:14:39;;;;;;;30.50;16.80;;;5.20;99.90;;;;;;4961125;28;20465;-72
2020/12/05 09:17:24;;;;;;;24.47;13.10;;;5.20;99.90;;;;;;4972097;28;20520;-71
2020/12/05 09:20:24;;;;;;;29.43;13.10;;;5.30;99.90;;;;;;4981994;28;20450;-71
2020/12/05 09:22:54;;;;;;;30.13;13.80;;;5.20;99.90;;;;;;4966469;28;20453;-71
2020/12/05 09:25:35;;;;;;;22.33;13.07;;;5.30;99.90;;;;;;4956839;28;20460;-70
2020/12/05 09:28:09;;;;;;;21.00;12.27;;;5.30;99.90;;;;;;4937716;28;20469;-71
2020/12/05 09:30:35;;;;;;;25.07;12.20;;;5.30;99.90;;;;;;4958610;28;20469;-72
2020/12/05 09:33:11;;;;;;;24.80;11.70;;;5.30;99.90;;;;;;4987543;28;20566;-71
2020/12/05 09:35:37;;;;;;;18.90;11.13;;;5.30;99.90;;;;;;4991187;28;20484;-71
2020/12/05 09:38:03;;;;;;;18.97;11.40;;;5.30;99.90;;;;;;4947003;28;20462;-72
2020/12/05 09:40:30;;;;;;;16.17;10.50;;;5.30;99.90;;;;;;4959540;28;20457;-71
2020/12/05 09:42:58;;;;;;;16.10;10.20;;;5.30;99.90;;;;;;4969980;28;20237;-70
2020/12/05 09:45:24;;;;;;;18.07;10.60;;;5.40;99.90;;;;;;4976817;28;20468;-71
2020/12/05 09:47:50;;;;;;;18.07;10.00;;;5.30;99.90;;;;;;4975496;28;21002;-70
2020/12/05 09:50:16;;;;;;;17.40;10.67;;;5.30;99.90;;;;;;4943798;28;20458;-71
2020/12/05 09:52:42;;;;;;;18.50;10.17;;;5.30;99.90;;;;;;4959443;28;20218;-71
2020/12/05 09:55:08;;;;;;;21.20;11.83;;;5.40;99.90;;;;;;4960095;28;20707;-71
2020/12/05 09:57:34;;;;;;;19.23;11.27;;;5.40;99.90;;;;;;4959601;28;20465;-71
2020/12/05 10:00:00;;;;;;;14.03;8.70;;;5.40;99.90;;;;;;4958315;28;20457;-71
2020/12/05 10:02:26;;;;;;;14.50;7.87;;;5.50;99.90;;;;;;4975024;28;20222;-71
2020/12/05 10:04:51;;;;;;;23.90;11.10;;;5.50;99.90;;;;;;4958874;28;20553;-71
2020/12/05 10:07:17;;;;;;;26.17;11.83;;;5.50;99.90;;;;;;4976171;28;20231;-70
2020/12/05 10:09:43;;;;;;;26.60;11.73;;;5.50;99.90;;;;;;4958939;28;20242;-70
2020/12/05 10:12:09;;;;;;;20.13;10.60;;;5.50;99.90;;;;;;4957588;28;20274;-70
2020/12/05 10:14:34;;;;;;;18.93;11.60;;;5.50;99.90;;;;;;4943542;28;20269;-70
2020/12/05 10:17:00;;;;;;;20.10;9.70;;;5.60;99.90;;;;;;4956893;28;20322;-71
2020/12/05 10:19:26;;;;;;;20.67;10.53;;;5.60;99.90;;;;;;4972705;28;20219;-71
2020/12/05 10:21:52;;;;;;;12.60;8.27;;;5.60;99.90;;;;;;4955207;28;20229;-71
2020/12/05 10:24:19;;;;;;;14.37;8.50;;;5.60;99.90;;;;;;4976716;28;20237;-72
2020/12/05 10:26:55;;;;;;;15.73;8.87;;;5.60;99.90;;;;;;4991490;28;20226;-73
2020/12/05 10:29:21;;;;;;;12.37;8.60;;;5.60;99.90;;;;;;4975561;28;20484;-73
2020/12/05 10:31:48;;;;;;;15.00;8.60;;;5.60;99.90;;;;;;4979537;28;20480;-73
2020/12/05 10:34:15;;;;;;;15.70;8.43;;;5.60;99.90;;;;;;4975988;28;20456;-73
2020/12/05 10:36:42;;;;;;;14.00;9.03;;;5.60;99.90;;;;;;4957615;28;20537;-70
2020/12/05 10:39:08;;;;;;;10.40;6.80;;;5.60;99.90;;;;;;4974750;28;20461;-70
2020/12/05 10:41:36;;;;;;;14.47;8.00;;;5.60;99.90;;;;;;4974386;28;20971;-71
2020/12/05 10:44:03;;;;;;;11.77;6.97;;;5.60;99.90;;;;;;4954633;28;20477;-70
2020/12/05 10:46:28;;;;;;;8.50;6.00;;;5.60;99.90;;;;;;4992963;28;20832;-73
2020/12/05 10:48:54;;;;;;;12.13;7.00;;;5.60;99.90;;;;;;4969315;28;20477;-72
2020/12/05 10:51:20;;;;;;;10.57;6.20;;;5.60;99.90;;;;;;4956590;28;20222;-73
2020/12/05 10:53:45;;;;;;;7.17;5.27;;;5.60;99.90;;;;;;4971484;28;20775;-73
2020/12/05 10:56:11;;;;;;;8.80;5.60;;;5.60;99.90;;;;;;4942697;29;20254;-73
2020/12/05 10:58:36;;;;;;;8.00;5.83;;;5.70;99.90;;;;;;4981533;28;20269;-73
2020/12/05 11:01:03;;;;;;;10.87;5.30;;;5.70;99.90;;;;;;4953922;28;20219;-73
2020/12/05 11:03:29;;;;;;;8.03;5.23;;;5.70;99.90;;;;;;4993130;28;20292;-73
2020/12/05 11:05:54;;;;;;;7.17;4.40;;;5.80;99.90;;;;;;4948813;28;21026;-72
2020/12/05 11:08:20;;;;;;;9.17;4.73;;;5.80;99.90;;;;;;4973313;28;20668;-73
2020/12/05 11:10:46;;;;;;;7.53;4.87;;;5.80;99.90;;;;;;4989626;28;20462;-73
2020/12/05 11:13:11;;;;;;;9.27;5.63;;;5.80;99.90;;;;;;4974100;28;20280;-74
2020/12/05 11:15:39;;;;;;;10.83;6.00;;;5.80;99.90;;;;;;4974672;28;20218;-73
2020/12/05 11:18:05;;;;;;;11.87;6.57;;;5.80;99.90;;;;;;4972290;28;20303;-74
2020/12/05 11:20:31;;;;;;;10.43;6.40;;;5.80;99.90;;;;;;4956865;28;20568;-72
2020/12/05 11:22:56;;;;;;;13.20;5.90;;;5.80;99.90;;;;;;4959091;28;20354;-73
2020/12/05 11:25:22;;;;;;;7.83;6.40;;;5.90;99.90;;;;;;4972749;28;20479;-73
2020/12/05 11:27:48;;;;;;;10.47;6.00;;;5.90;99.90;;;;;;4948946;28;20289;-73
2020/12/05 11:30:13;;;;;;;11.10;6.00;;;5.90;99.90;;;;;;4957725;28;20829;-72
2020/12/05 11:32:40;;;;;;;9.03;5.20;;;5.90;99.90;;;;;;4963509;28;20225;-73
2020/12/05 11:35:06;;;;;;;10.23;6.27;;;5.90;99.90;;;;;;4940721;28;20226;-73
2020/12/05 11:37:32;;;;;;;10.40;5.90;;;6.00;99.90;;;;;;4978112;28;20833;-74
2020/12/05 11:39:57;;;;;;;9.20;6.27;;;6.00;99.90;;;;;;4958423;28;20529;-74
2020/12/05 11:42:23;;;;;;;7.57;5.07;;;6.00;99.90;;;;;;4970292;28;20487;-73
2020/12/05 11:44:49;;;;;;;8.60;5.50;;;6.00;99.90;;;;;;4962181;28;20237;-72
2020/12/05 11:47:15;;;;;;;10.57;6.20;;;6.10;99.90;;;;;;4957094;28;20256;-73
2020/12/05 11:49:41;;;;;;;8.10;5.83;;;6.10;99.90;;;;;;4972082;28;20217;-73
2020/12/05 11:52:07;;;;;;;9.57;6.17;;;6.10;99.90;;;;;;4970403;28;20218;-73
2020/12/05 11:54:33;;;;;;;10.67;6.10;;;6.10;99.90;;;;;;4954241;28;20463;-73
2020/12/05 11:56:58;;;;;;;14.03;6.13;;;6.10;99.90;;;;;;4955364;28;20305;-73
2020/12/05 11:59:24;;;;;;;11.23;6.57;;;6.10;99.90;;;;;;4956524;28;20226;-72
2020/12/05 12:01:56;;;;;;;9.30;6.40;;;6.10;99.90;;;;;;4953117;28;20241;-73
2020/12/05 12:04:21;;;;;;;9.00;5.27;;;6.10;99.90;;;;;;4954629;28;20281;-74
2020/12/05 12:06:48;;;;;;;10.17;5.50;;;6.10;99.90;;;;;;4962866;28;20484;-73
2020/12/05 12:09:13;;;;;;;13.17;5.80;;;6.20;99.90;;;;;;4956983;28;20647;-73
2020/12/05 12:11:39;;;;;;;7.67;4.80;;;6.20;99.90;;;;;;4972451;28;20457;-73
2020/12/05 12:14:05;;;;;;;6.70;4.63;;;6.20;99.90;;;;;;4953460;28;20226;-72
2020/12/05 12:16:30;;;;;;;5.57;4.43;;;6.20;99.90;;;;;;4959020;28;20230;-73
2020/12/05 12:18:56;;;;;;;8.90;5.23;;;6.20;99.90;;;;;;4959928;28;20246;-73
2020/12/05 12:21:26;;;;;;;5.33;4.30;;;6.20;99.90;;;;;;4945045;28;20223;-73
2020/12/05 12:23:52;;;;;;;6.83;4.40;;;6.20;99.90;;;;;;4969813;28;20241;-74
2020/12/05 12:26:18;;;;;;;8.10;4.60;;;6.30;99.90;;;;;;4951401;28;20549;-73
2020/12/05 12:28:44;;;;;;;6.93;4.20;;;6.30;99.90;;;;;;4972164;28;20500;-74
2020/12/05 12:31:11;;;;;;;4.90;4.20;;;6.30;99.90;;;;;;4970701;28;20485;-73
2020/12/05 12:33:38;;;;;;;5.10;3.53;;;6.30;99.90;;;;;;4972053;28;20596;-72
2020/12/05 12:36:04;;;;;;;5.10;4.23;;;6.30;99.90;;;;;;4972290;28;20453;-73
2020/12/05 12:38:30;;;;;;;5.00;4.10;;;6.30;99.90;;;;;;4972731;28;20462;-73
2020/12/05 12:40:55;;;;;;;6.23;3.80;;;6.40;99.90;;;;;;4954294;28;20977;-73
2020/12/05 12:43:22;;;;;;;7.77;5.50;;;6.40;99.90;;;;;;4951918;28;20462;-73
2020/12/05 12:45:48;;;;;;;7.30;4.50;;;6.40;99.90;;;;;;4974017;28;20758;-73
2020/12/05 12:50:49;;;;;;;5.83;4.77;;;6.40;99.90;;;;;;4958848;28;20493;-73
2020/12/05 12:53:14;;;;;;;8.87;5.37;;;6.40;99.90;;;;;;4964693;28;20485;-72
2020/12/05 12:55:40;;;;;;;7.83;5.97;;;6.40;99.90;;;;;;4959418;28;20301;-73
2020/12/05 12:58:49;;;;;;;9.03;5.83;;;6.40;99.90;;;;;;4958207;28;20221;-72
2020/12/05 13:00:55;;;;;;;5.40;4.60;;;6.40;99.90;;;;;;4968376;28;20461;-73
2020/12/05 13:03:22;;;;;;;7.23;5.60;;;6.40;99.90;;;;;;4972752;28;20466;-72